Time;durP1;ratioP1;P1;durP2;ratioP2;P2;SDS_P1;SDS_P2;PMS_P1;PMS_P2;Temp;Humidity;BMP_temperature;BMP_pressure;BME280_temperature;BME280_humidity;BME280_pressure;Samples;Min_cycle;Max_cycle;Signal;HPM_P1;HPM_P2
2021/12/01 01:17:36;;;;;;;0.80;0.80;;;;;;;;;;5042794;28;20046;-85
2021/12/01 01:20:22;;;;;;;0.80;0.80;;;;;;;;;;5023964;28;20041;-84
2021/12/01 01:22:51;;;;;;;2.85;0.88;;;;;;;;;;5004688;28;20022;-86
2021/12/01 01:25:16;;;;;;;0.82;0.80;;;;;;;;;;5022241;28;20044;-85
2021/12/01 01:27:41;;;;;;;0.70;0.70;;;;;;;;;;5022462;28;20093;-85
2021/12/01 01:30:07;;;;;;;1.63;0.70;;;;;;;;;;5001886;28;20026;-85
2021/12/01 01:32:34;;;;;;;0.82;0.80;;;;;;;;;;5023515;28;20032;-85
2021/12/01 01:34:59;;;;;;;1.45;0.93;;;;;;;;;;5022601;28;20022;-85
2021/12/01 01:37:25;;;;;;;0.98;0.95;;;;;;;;;;5022251;28;20021;-85
2021/12/01 01:39:50;;;;;;;1.05;1.00;;;;;;;;;;5004286;28;20037;-86
2021/12/01 01:42:15;;;;;;;2.40;1.10;;;;;;;;;;5023023;28;20021;-85
2021/12/01 01:44:41;;;;;;;2.53;1.25;;;;;;;;;;5021578;28;20030;-85
2021/12/01 01:47:15;;;;;;;1.23;1.00;;;;;;;;;;5007350;28;20050;-87
2021/12/01 01:52:26;;;;;;;1.08;0.98;;;;;;;;;;5024996;28;20049;-86
2021/12/01 01:54:52;;;;;;;1.48;1.13;;;;;;;;;;5024571;28;20022;-86
2021/12/01 01:57:17;;;;;;;1.60;0.90;;;;;;;;;;5020986;28;20018;-86
2021/12/01 01:59:43;;;;;;;0.80;0.80;;;;;;;;;;5021038;28;20262;-85
2021/12/01 02:02:08;;;;;;;2.17;1.10;;;;;;;;;;5022156;28;20524;-85
2021/12/01 02:04:34;;;;;;;1.33;0.95;;;;;;;;;;5020703;28;20025;-85
2021/12/01 02:07:01;;;;;;;1.10;1.00;;;;;;;;;;5000499;28;20030;-86
2021/12/01 02:09:27;;;;;;;1.15;1.15;;;;;;;;;;5005445;28;20022;-85
2021/12/01 02:11:57;;;;;;;0.90;0.90;;;;;;;;;;5017075;28;20068;-86
2021/12/01 02:14:24;;;;;;;1.20;1.20;;;;;;;;;;5013915;28;20032;-86
2021/12/01 02:16:54;;;;;;;1.35;1.23;;;;;;;;;;5015971;28;20025;-85
2021/12/01 02:19:20;;;;;;;1.25;1.08;;;;;;;;;;5008124;28;20361;-86
2021/12/01 02:21:45;;;;;;;1.77;1.20;;;;;;;;;;5017452;28;20045;-85
2021/12/01 02:24:14;;;;;;;1.60;1.15;;;;;;;;;;5018928;28;20046;-86
2021/12/01 02:26:49;;;;;;;3.10;1.05;;;;;;;;;;4994226;28;20025;-86
2021/12/01 02:29:41;;;;;;;1.98;1.13;;;;;;;;;;5017275;28;20018;-85
2021/12/01 02:44:39;;;;;;;1.40;1.30;;;;;;;;;;5034379;28;20170;-87
2021/12/01 02:47:05;;;;;;;2.17;1.30;;;;;;;;;;5039480;28;20030;-87
2021/12/01 02:49:30;;;;;;;1.95;1.48;;;;;;;;;;5015989;28;20029;-88
2021/12/01 02:51:56;;;;;;;1.05;1.05;;;;;;;;;;5016751;28;20029;-85
2021/12/01 02:54:24;;;;;;;1.10;1.00;;;;;;;;;;5035342;28;20034;-84
2021/12/01 02:56:51;;;;;;;2.05;1.20;;;;;;;;;;5015956;28;20072;-86
2021/12/01 02:59:17;;;;;;;1.13;1.08;;;;;;;;;;5034793;28;20061;-87
2021/12/01 03:02:29;;;;;;;1.38;1.17;;;;;;;;;;5016836;28;20041;-85
2021/12/01 03:05:52;;;;;;;1.73;1.23;;;;;;;;;;5011720;28;20026;-88
2021/12/01 03:08:29;;;;;;;1.67;1.10;;;;;;;;;;4979965;28;20029;-86
2021/12/01 03:10:58;;;;;;;0.90;0.90;;;;;;;;;;5013935;28;20045;-85
2021/12/01 03:13:25;;;;;;;1.20;1.10;;;;;;;;;;5032940;28;20026;-85
2021/12/01 03:15:58;;;;;;;1.10;0.93;;;;;;;;;;5033393;28;20022;-86
2021/12/01 03:19:08;;;;;;;1.10;1.05;;;;;;;;;;5013237;28;20034;-86
2021/12/01 03:21:38;;;;;;;0.90;0.90;;;;;;;;;;4965570;28;20045;-86
2021/12/01 03:24:10;;;;;;;0.82;0.82;;;;;;;;;;5002429;28;20029;-85
2021/12/01 03:26:36;;;;;;;0.95;0.95;;;;;;;;;;4994589;28;20054;-86
2021/12/01 03:29:12;;;;;;;0.93;0.90;;;;;;;;;;5019727;28;20052;-85
2021/12/01 03:31:38;;;;;;;1.25;1.15;;;;;;;;;;4997957;28;20018;-84
2021/12/01 03:34:04;;;;;;;1.20;1.10;;;;;;;;;;5018810;28;20025;-84
2021/12/01 03:36:33;;;;;;;0.93;0.93;;;;;;;;;;5003275;28;20497;-84
2021/12/01 03:38:58;;;;;;;1.25;1.10;;;;;;;;;;5012810;28;20049;-85
2021/12/01 03:42:01;;;;;;;1.08;0.98;;;;;;;;;;5030175;28;20034;-85
2021/12/01 03:44:26;;;;;;;1.05;1.05;;;;;;;;;;5032002;28;20022;-85
2021/12/01 03:46:52;;;;;;;1.30;1.20;;;;;;;;;;5025137;28;20044;-86
2021/12/01 03:49:46;;;;;;;2.00;1.30;;;;;;;;;;4999253;28;20470;-87
2021/12/01 03:52:16;;;;;;;2.42;1.17;;;;;;;;;;4998365;28;20129;-84
2021/12/01 03:55:05;;;;;;;1.25;1.20;;;;;;;;;;5017678;28;20059;-83
2021/12/01 03:57:31;;;;;;;2.22;1.20;;;;;;;;;;5017857;28;20021;-84
2021/12/01 03:59:59;;;;;;;2.83;1.35;;;;;;;;;;5014138;28;20499;-84
2021/12/01 04:02:24;;;;;;;1.42;1.33;;;;;;;;;;5000368;28;20022;-85
2021/12/01 04:04:50;;;;;;;2.70;1.40;;;;;;;;;;5002020;28;20025;-85
2021/12/01 04:07:15;;;;;;;5.22;1.30;;;;;;;;;;4990090;28;20401;-85
2021/12/01 04:09:42;;;;;;;1.30;1.20;;;;;;;;;;4996906;28;20947;-85
2021/12/01 04:12:35;;;;;;;1.35;1.30;;;;;;;;;;5001481;28;20122;-86
2021/12/01 04:15:02;;;;;;;1.80;1.02;;;;;;;;;;5010498;28;20021;-84
2021/12/01 04:17:28;;;;;;;2.50;1.40;;;;;;;;;;5029535;28;20028;-84
2021/12/01 04:19:53;;;;;;;1.33;1.23;;;;;;;;;;5011343;28;20025;-84
2021/12/01 04:22:18;;;;;;;1.30;1.20;;;;;;;;;;5030848;28;20018;-84
2021/12/01 04:24:44;;;;;;;3.92;1.60;;;;;;;;;;5031077;28;20022;-84
2021/12/01 04:27:10;;;;;;;1.58;1.48;;;;;;;;;;5011601;28;20561;-84
2021/12/01 04:29:37;;;;;;;2.05;1.30;;;;;;;;;;5031187;28;20037;-84
2021/12/01 04:32:03;;;;;;;1.48;1.38;;;;;;;;;;5036957;28;20018;-85
2021/12/01 04:34:28;;;;;;;2.05;1.60;;;;;;;;;;5037151;28;20026;-85
2021/12/01 04:36:54;;;;;;;2.72;1.40;;;;;;;;;;5012645;28;20056;-85
2021/12/01 04:39:20;;;;;;;2.60;1.40;;;;;;;;;;5032024;28;20026;-85
2021/12/01 04:41:52;;;;;;;1.63;1.40;;;;;;;;;;5014341;28;20033;-84
2021/12/01 04:44:21;;;;;;;1.27;1.17;;;;;;;;;;5031263;28;20024;-84
2021/12/01 04:46:48;;;;;;;1.52;1.42;;;;;;;;;;5013455;28;20034;-85
2021/12/01 04:49:19;;;;;;;1.15;1.05;;;;;;;;;;5006318;28;20025;-85
2021/12/01 04:51:47;;;;;;;1.98;1.30;;;;;;;;;;5033295;28;20049;-85
2021/12/01 04:54:13;;;;;;;1.95;1.38;;;;;;;;;;5008534;28;20011;-84
2021/12/01 04:56:39;;;;;;;3.65;1.30;;;;;;;;;;5025254;28;20026;-84
2021/12/01 04:59:05;;;;;;;1.42;1.33;;;;;;;;;;5010839;28;20110;-84
2021/12/01 05:01:33;;;;;;;5.05;1.48;;;;;;;;;;5027811;28;20476;-84
2021/12/01 05:03:58;;;;;;;1.40;1.30;;;;;;;;;;5029640;28;20084;-85
2021/12/01 05:06:23;;;;;;;1.40;1.30;;;;;;;;;;5009586;28;20433;-84
2021/12/01 05:08:49;;;;;;;1.88;1.55;;;;;;;;;;5009513;28;20104;-84
2021/12/01 05:11:14;;;;;;;1.60;1.30;;;;;;;;;;5009969;28;20025;-84
2021/12/01 05:13:39;;;;;;;1.10;0.95;;;;;;;;;;4996808;23;20412;-86
2021/12/01 05:16:05;;;;;;;1.23;1.13;;;;;;;;;;4965221;28;20034;-86
2021/12/01 05:18:30;;;;;;;1.75;1.00;;;;;;;;;;4957218;28;20481;-85
2021/12/01 05:20:55;;;;;;;1.17;1.13;;;;;;;;;;4970798;28;20047;-85
2021/12/01 05:23:21;;;;;;;1.17;1.08;;;;;;;;;;4966534;28;20029;-86
2021/12/01 05:25:47;;;;;;;3.00;1.40;;;;;;;;;;4976857;28;20389;-84
2021/12/01 05:28:12;;;;;;;2.40;1.40;;;;;;;;;;4979016;28;20392;-84
2021/12/01 05:30:38;;;;;;;2.08;1.45;;;;;;;;;;4976428;28;20073;-87
2021/12/01 05:33:10;;;;;;;0.80;0.80;;;;;;;;;;4975652;28;20034;-87
2021/12/01 05:35:36;;;;;;;0.88;0.80;;;;;;;;;;4977591;28;20061;-87
2021/12/01 05:38:03;;;;;;;0.95;0.90;;;;;;;;;;4977531;28;20087;-87
2021/12/01 05:40:30;;;;;;;1.15;1.00;;;;;;;;;;4976352;28;20031;-86
2021/12/01 05:42:55;;;;;;;2.90;1.10;;;;;;;;;;4976571;28;20034;-86
2021/12/01 05:45:20;;;;;;;0.93;0.90;;;;;;;;;;4973816;28;20026;-85
2021/12/01 05:47:46;;;;;;;2.97;1.30;;;;;;;;;;4975314;28;20034;-85
2021/12/01 05:50:12;;;;;;;0.85;0.85;;;;;;;;;;4975382;28;20477;-87
2021/12/01 05:52:37;;;;;;;1.75;1.02;;;;;;;;;;4974730;28;20105;-85
2021/12/01 05:55:05;;;;;;;1.58;0.93;;;;;;;;;;4974886;28;20069;-84
2021/12/01 05:57:30;;;;;;;1.08;0.98;;;;;;;;;;4974164;28;20034;-85
2021/12/01 05:59:56;;;;;;;0.82;0.82;;;;;;;;;;4986102;28;20031;-86
2021/12/01 06:02:22;;;;;;;2.00;1.00;;;;;;;;;;4975841;28;20027;-85
2021/12/01 06:04:48;;;;;;;0.93;0.90;;;;;;;;;;4975382;28;20098;-87
2021/12/01 06:07:14;;;;;;;1.83;0.70;;;;;;;;;;4977424;28;20113;-85
2021/12/01 06:09:39;;;;;;;0.85;0.85;;;;;;;;;;4979054;28;20061;-86
2021/12/01 06:12:06;;;;;;;1.27;0.68;;;;;;;;;;4978831;28;20098;-87
2021/12/01 06:14:47;;;;;;;0.70;0.70;;;;;;;;;;4996768;28;20547;-88
2021/12/01 06:20:37;;;;;;;0.68;0.68;;;;;;;;;;4998835;28;20526;-87
2021/12/01 06:23:02;;;;;;;2.28;0.73;;;;;;;;;;4999634;28;20030;-84
2021/12/01 06:25:28;;;;;;;1.13;1.00;;;;;;;;;;4999123;28;20090;-83
2021/12/01 06:27:54;;;;;;;0.80;0.80;;;;;;;;;;5000281;28;20022;-85
2021/12/01 06:30:21;;;;;;;0.95;0.85;;;;;;;;;;4999822;28;20022;-85
2021/12/01 06:32:47;;;;;;;0.82;0.82;;;;;;;;;;4998741;28;20025;-84
2021/12/01 06:35:12;;;;;;;0.77;0.77;;;;;;;;;;4998950;28;20116;-85
2021/12/01 06:37:38;;;;;;;0.85;0.80;;;;;;;;;;4999567;28;20046;-86
2021/12/01 06:40:05;;;;;;;0.75;0.70;;;;;;;;;;4999847;28;20088;-84
2021/12/01 06:42:30;;;;;;;1.52;1.02;;;;;;;;;;4997871;28;20053;-86
2021/12/01 06:44:55;;;;;;;0.75;0.75;;;;;;;;;;4999218;28;20018;-84
2021/12/01 06:47:21;;;;;;;1.10;0.75;;;;;;;;;;4999878;28;20056;-86
2021/12/01 06:49:47;;;;;;;0.60;0.60;;;;;;;;;;4995903;28;20026;-84
2021/12/01 06:52:13;;;;;;;1.40;0.80;;;;;;;;;;4997689;28;20021;-85
2021/12/01 06:54:39;;;;;;;0.95;0.70;;;;;;;;;;4997552;28;20041;-85
2021/12/01 06:57:05;;;;;;;1.67;0.68;;;;;;;;;;4998540;28;20026;-84
2021/12/01 06:59:30;;;;;;;0.60;0.60;;;;;;;;;;4997693;28;20076;-82
2021/12/01 07:01:56;;;;;;;1.10;1.05;;;;;;;;;;4999061;28;20027;-83
2021/12/01 07:04:21;;;;;;;0.85;0.85;;;;;;;;;;4998351;28;20048;-82
2021/12/01 07:06:46;;;;;;;0.60;0.60;;;;;;;;;;4999134;28;20045;-85
2021/12/01 07:09:18;;;;;;;1.50;0.80;;;;;;;;;;4998354;28;20023;-85
2021/12/01 07:11:44;;;;;;;0.60;0.60;;;;;;;;;;4998024;28;20054;-87
2021/12/01 07:14:09;;;;;;;1.95;1.00;;;;;;;;;;4996198;28;20492;-87
2021/12/01 07:16:35;;;;;;;1.80;0.82;;;;;;;;;;4996717;28;20015;-86
2021/12/01 07:19:00;;;;;;;1.75;0.90;;;;;;;;;;4994274;28;20092;-88
2021/12/01 07:21:25;;;;;;;0.63;0.63;;;;;;;;;;4994154;28;20027;-87
2021/12/01 07:23:51;;;;;;;0.60;0.60;;;;;;;;;;5009466;28;20058;-86
2021/12/01 07:26:16;;;;;;;2.75;0.73;;;;;;;;;;4997686;28;20038;-87
2021/12/01 07:28:42;;;;;;;1.00;0.90;;;;;;;;;;4994808;28;20096;-87
2021/12/01 07:31:07;;;;;;;0.95;0.80;;;;;;;;;;4966299;28;20030;-87
2021/12/01 07:33:33;;;;;;;1.52;0.70;;;;;;;;;;4998949;28;20187;-88
2021/12/01 07:35:59;;;;;;;0.75;0.57;;;;;;;;;;4997191;28;20030;-88
2021/12/01 07:38:24;;;;;;;0.77;0.77;;;;;;;;;;4997579;28;20037;-87
2021/12/01 07:40:49;;;;;;;0.68;0.50;;;;;;;;;;4996846;28;20080;-88
2021/12/01 07:43:15;;;;;;;5.03;0.55;;;;;;;;;;4997186;28;20049;-88
2021/12/01 07:45:43;;;;;;;1.38;0.90;;;;;;;;;;4996790;28;20026;-86
2021/12/01 07:48:11;;;;;;;0.70;0.70;;;;;;;;;;4996683;28;20056;-87
2021/12/01 07:50:36;;;;;;;0.73;0.52;;;;;;;;;;4998483;28;20727;-87
2021/12/01 07:53:02;;;;;;;0.75;0.70;;;;;;;;;;4998590;28;20038;-86
2021/12/01 07:55:28;;;;;;;0.68;0.63;;;;;;;;;;4996682;28;20029;-87
2021/12/01 07:57:53;;;;;;;0.77;0.75;;;;;;;;;;4993588;28;20077;-85
2021/12/01 08:00:18;;;;;;;0.85;0.85;;;;;;;;;;5005201;28;20092;-87
2021/12/01 08:02:45;;;;;;;0.50;0.50;;;;;;;;;;4994413;28;20477;-87
2021/12/01 08:05:11;;;;;;;0.65;0.60;;;;;;;;;;4997682;28;20037;-86
2021/12/01 08:07:38;;;;;;;1.55;0.57;;;;;;;;;;4997981;28;20022;-87
2021/12/01 08:10:05;;;;;;;1.50;0.70;;;;;;;;;;4996627;28;20081;-84
2021/12/01 08:12:33;;;;;;;0.90;0.80;;;;;;;;;;5000330;28;20034;-88
2021/12/01 08:14:59;;;;;;;0.60;0.60;;;;;;;;;;5006096;28;20026;-87
2021/12/01 08:17:25;;;;;;;0.95;0.60;;;;;;;;;;4993037;28;20026;-86
2021/12/01 08:19:51;;;;;;;3.60;0.60;;;;;;;;;;5016993;28;20033;-84
2021/12/01 08:22:16;;;;;;;2.20;0.73;;;;;;;;;;5015312;28;20050;-85
2021/12/01 08:24:42;;;;;;;0.55;0.55;;;;;;;;;;4997192;28;20030;-86
2021/12/01 08:27:08;;;;;;;1.75;0.50;;;;;;;;;;4997588;28;20034;-86
2021/12/01 08:29:33;;;;;;;5.60;0.90;;;;;;;;;;5017323;28;20068;-88
2021/12/01 08:42:13;;;;;;;0.40;0.40;;;;;;;;;;5060267;28;20055;-85
2021/12/01 08:48:03;;;;;;;0.50;0.50;;;;;;;;;;5060443;28;20087;-85
2021/12/01 08:50:36;;;;;;;1.17;0.60;;;;;;;;;;5041116;28;20104;-85
2021/12/01 08:53:02;;;;;;;0.30;0.30;;;;;;;;;;5037665;28;20025;-84
2021/12/01 08:55:33;;;;;;;2.17;0.85;;;;;;;;;;5057402;28;20071;-85
2021/12/01 08:58:04;;;;;;;0.40;0.40;;;;;;;;;;5039997;28;20520;-85
2021/12/01 09:00:33;;;;;;;0.50;0.50;;;;;;;;;;5039498;28;20021;-85
2021/12/01 09:02:58;;;;;;;1.35;0.50;;;;;;;;;;5039911;28;20037;-83
2021/12/01 09:05:24;;;;;;;0.75;0.75;;;;;;;;;;5058109;28;20028;-86
2021/12/01 09:07:49;;;;;;;0.50;0.50;;;;;;;;;;5039927;28;20534;-84
2021/12/01 09:10:43;;;;;;;1.13;0.55;;;;;;;;;;5058086;28;20028;-87
2021/12/01 09:13:09;;;;;;;0.75;0.75;;;;;;;;;;5037240;28;20051;-87
2021/12/01 09:15:35;;;;;;;1.35;0.50;;;;;;;;;;5056261;28;20462;-88
2021/12/01 09:18:00;;;;;;;0.70;0.60;;;;;;;;;;5056058;28;20087;-88
2021/12/01 09:20:26;;;;;;;2.50;1.00;;;;;;;;;;5054188;28;20033;-89
2021/12/01 09:22:54;;;;;;;0.55;0.50;;;;;;;;;;5053548;28;20035;-91
2021/12/01 09:25:20;;;;;;;1.48;0.52;;;;;;;;;;5052684;28;20446;-92
2021/12/01 09:27:50;;;;;;;0.65;0.50;;;;;;;;;;5056523;28;20083;-91
2021/12/01 09:30:17;;;;;;;0.95;0.70;;;;;;;;;;5038728;28;20040;-91
2021/12/01 09:32:43;;;;;;;0.30;0.30;;;;;;;;;;5047831;28;20059;-93
2021/12/01 09:35:13;;;;;;;0.68;0.68;;;;;;;;;;5067827;28;20041;-91
2021/12/01 09:37:43;;;;;;;0.77;0.60;;;;;;;;;;5056042;28;20024;-92
2021/12/01 09:40:38;;;;;;;1.83;0.50;;;;;;;;;;5042091;28;20048;-92
2021/12/01 09:43:27;;;;;;;0.55;0.40;;;;;;;;;;5041703;28;20037;-90
2021/12/01 09:45:56;;;;;;;0.47;0.47;;;;;;;;;;5042614;28;20076;-91
2021/12/01 09:48:23;;;;;;;1.35;0.70;;;;;;;;;;5043229;28;20040;-90
2021/12/01 09:50:48;;;;;;;0.50;0.30;;;;;;;;;;5042728;28;20021;-91
2021/12/01 09:53:15;;;;;;;0.52;0.52;;;;;;;;;;5041646;28;20032;-91
2021/12/01 09:55:41;;;;;;;0.30;0.30;;;;;;;;;;5041255;28;20090;-90
2021/12/01 10:01:05;;;;;;;0.50;0.50;;;;;;;;;;5025645;28;20029;-92
2021/12/01 10:03:31;;;;;;;0.40;0.40;;;;;;;;;;5039120;28;20380;-92
2021/12/01 10:06:13;;;;;;;0.47;0.47;;;;;;;;;;5058303;28;20493;-92
2021/12/01 10:09:08;;;;;;;0.45;0.45;;;;;;;;;;5040006;28;20040;-91
2021/12/01 10:11:41;;;;;;;0.30;0.30;;;;;;;;;;5041262;28;20013;-91
2021/12/01 10:14:20;;;;;;;0.40;0.40;;;;;;;;;;5039311;28;20037;-91
2021/12/01 10:16:50;;;;;;;1.67;0.68;;;;;;;;;;5040312;28;20107;-91
2021/12/01 10:19:17;;;;;;;0.32;0.22;;;;;;;;;;5055765;28;20027;-90
2021/12/01 10:21:48;;;;;;;0.73;0.50;;;;;;;;;;5066777;28;20020;-89
2021/12/01 10:24:23;;;;;;;0.63;0.40;;;;;;;;;;5042661;28;20479;-87
2021/12/01 10:26:55;;;;;;;0.38;0.38;;;;;;;;;;5042768;28;20028;-86
2021/12/01 10:29:32;;;;;;;1.70;0.50;;;;;;;;;;5061394;28;20074;-86
2021/12/01 10:32:06;;;;;;;0.30;0.30;;;;;;;;;;5058798;28;20025;-87
2021/12/01 10:34:53;;;;;;;0.40;0.40;;;;;;;;;;5061497;28;20352;-86
2021/12/01 10:37:28;;;;;;;0.80;0.47;;;;;;;;;;5044209;28;20021;-87
2021/12/01 10:40:08;;;;;;;0.40;0.40;;;;;;;;;;5042535;28;20306;-87
2021/12/01 10:42:33;;;;;;;0.30;0.30;;;;;;;;;;5060573;28;20017;-86
2021/12/01 10:45:02;;;;;;;2.75;0.40;;;;;;;;;;5042866;28;20051;-86
2021/12/01 10:47:38;;;;;;;0.40;0.40;;;;;;;;;;5055727;28;20048;-88
2021/12/01 10:50:05;;;;;;;0.30;0.30;;;;;;;;;;5040680;28;20024;-85
2021/12/01 10:52:40;;;;;;;0.20;0.20;;;;;;;;;;5054130;28;20494;-86
2021/12/01 10:55:17;;;;;;;1.27;0.50;;;;;;;;;;5040967;28;20031;-87
2021/12/01 10:57:47;;;;;;;0.45;0.30;;;;;;;;;;5059272;28;20025;-86
2021/12/01 11:00:23;;;;;;;0.88;0.68;;;;;;;;;;5041244;28;20132;-86
2021/12/01 11:02:49;;;;;;;0.95;0.73;;;;;;;;;;5055442;28;20112;-86
2021/12/01 11:05:32;;;;;;;0.40;0.40;;;;;;;;;;5042493;28;20112;-86
2021/12/01 11:08:21;;;;;;;0.77;0.65;;;;;;;;;;5059141;28;20378;-86
2021/12/01 11:10:49;;;;;;;0.43;0.30;;;;;;;;;;5040697;28;20017;-86
2021/12/01 11:13:15;;;;;;;0.50;0.50;;;;;;;;;;5030202;28;20067;-88
2021/12/01 11:15:43;;;;;;;0.50;0.50;;;;;;;;;;5057431;28;20020;-87
2021/12/01 11:18:15;;;;;;;0.20;0.20;;;;;;;;;;5057151;28;20028;-87
2021/12/01 11:20:49;;;;;;;1.92;0.60;;;;;;;;;;5039067;28;20107;-88
2021/12/01 11:23:14;;;;;;;0.32;0.32;;;;;;;;;;5040128;28;20383;-87
2021/12/01 11:25:42;;;;;;;0.95;0.35;;;;;;;;;;5037587;28;20047;-87
2021/12/01 11:28:13;;;;;;;0.45;0.45;;;;;;;;;;5039625;28;20039;-87
2021/12/01 11:30:40;;;;;;;0.20;0.20;;;;;;;;;;5057457;28;20067;-86
2021/12/01 11:33:06;;;;;;;1.50;0.40;;;;;;;;;;5039153;28;20087;-87
2021/12/01 11:35:32;;;;;;;0.38;0.38;;;;;;;;;;5036701;28;20036;-87
2021/12/01 11:37:58;;;;;;;0.40;0.40;;;;;;;;;;5044833;28;20447;-88
2021/12/01 11:40:27;;;;;;;0.47;0.30;;;;;;;;;;5054310;28;20491;-88
2021/12/01 11:42:53;;;;;;;0.25;0.25;;;;;;;;;;5058703;28;20032;-85
2021/12/01 11:45:18;;;;;;;0.63;0.40;;;;;;;;;;5040135;28;20094;-85
2021/12/01 11:47:47;;;;;;;0.65;0.38;;;;;;;;;;5058311;28;20046;-86
2021/12/01 11:50:20;;;;;;;1.95;0.50;;;;;;;;;;5057621;28;20021;-87
2021/12/01 11:53:16;;;;;;;0.50;0.50;;;;;;;;;;5058173;28;20151;-85
2021/12/01 11:55:58;;;;;;;0.30;0.30;;;;;;;;;;5037957;28;20045;-86
2021/12/01 11:58:48;;;;;;;0.43;0.43;;;;;;;;;;5053403;28;20080;-86
2021/12/01 12:01:20;;;;;;;0.38;0.38;;;;;;;;;;5026524;28;20025;-87
2021/12/01 12:03:59;;;;;;;0.30;0.30;;;;;;;;;;5057749;28;20113;-86
2021/12/01 12:06:26;;;;;;;0.35;0.35;;;;;;;;;;5041467;28;20032;-88
2021/12/01 12:08:59;;;;;;;0.60;0.60;;;;;;;;;;5041004;28;20031;-87
2021/12/01 12:11:34;;;;;;;0.40;0.40;;;;;;;;;;5040458;28;20017;-89
2021/12/01 12:14:21;;;;;;;0.40;0.40;;;;;;;;;;5039774;28;20124;-87
2021/12/01 12:17:08;;;;;;;0.40;0.40;;;;;;;;;;5057699;28;20037;-86
2021/12/01 12:19:43;;;;;;;0.40;0.40;;;;;;;;;;5040167;28;20017;-88
2021/12/01 12:22:08;;;;;;;0.40;0.40;;;;;;;;;;5039720;28;20021;-85
2021/12/01 12:24:55;;;;;;;0.63;0.50;;;;;;;;;;5039367;28;20047;-88
2021/12/01 12:27:33;;;;;;;1.42;0.50;;;;;;;;;;5066644;28;20021;-86
2021/12/01 12:30:01;;;;;;;0.63;0.30;;;;;;;;;;5036589;28;20051;-84
2021/12/01 12:32:30;;;;;;;0.40;0.40;;;;;;;;;;5037335;28;20048;-86
2021/12/01 12:34:58;;;;;;;0.20;0.20;;;;;;;;;;5039278;28;20070;-87
2021/12/01 12:37:26;;;;;;;0.40;0.40;;;;;;;;;;5036394;28;20028;-88
2021/12/01 12:39:53;;;;;;;0.47;0.47;;;;;;;;;;5055504;28;20031;-87
2021/12/01 12:42:19;;;;;;;0.40;0.40;;;;;;;;;;5037365;28;20017;-89
2021/12/01 12:44:53;;;;;;;1.10;0.63;;;;;;;;;;5055654;28;20102;-88
2021/12/01 12:47:24;;;;;;;0.40;0.40;;;;;;;;;;5037072;28;20693;-88
2021/12/01 12:49:56;;;;;;;0.30;0.30;;;;;;;;;;5037426;28;20044;-88
2021/12/01 12:52:24;;;;;;;0.43;0.43;;;;;;;;;;5038369;28;20390;-87
2021/12/01 12:54:57;;;;;;;0.52;0.50;;;;;;;;;;5035674;28;20044;-86
2021/12/01 12:57:53;;;;;;;0.38;0.38;;;;;;;;;;5026350;28;20032;-89
2021/12/01 13:00:22;;;;;;;0.30;0.30;;;;;;;;;;5023473;28;20083;-86
2021/12/01 13:02:48;;;;;;;0.40;0.40;;;;;;;;;;5036995;28;20017;-87
2021/12/01 13:05:27;;;;;;;0.40;0.40;;;;;;;;;;5056834;28;20021;-87
2021/12/01 13:07:55;;;;;;;0.40;0.40;;;;;;;;;;5037028;28;20078;-89
2021/12/01 13:10:36;;;;;;;0.52;0.52;;;;;;;;;;5058330;28;20466;-88
2021/12/01 13:13:06;;;;;;;0.40;0.40;;;;;;;;;;5037391;28;20060;-85
2021/12/01 13:15:49;;;;;;;0.88;0.55;;;;;;;;;;5037646;28;20032;-83
2021/12/01 13:18:21;;;;;;;0.68;0.68;;;;;;;;;;5047471;28;20483;-86
2021/12/01 13:20:51;;;;;;;0.50;0.50;;;;;;;;;;5058554;28;20108;-87
2021/12/01 13:23:28;;;;;;;1.23;0.40;;;;;;;;;;5038484;28;20074;-84
2021/12/01 13:26:22;;;;;;;0.40;0.40;;;;;;;;;;5056141;28;20021;-89
2021/12/01 13:29:13;;;;;;;1.65;0.57;;;;;;;;;;5058226;28;20016;-86
2021/12/01 13:31:42;;;;;;;0.77;0.50;;;;;;;;;;5056273;28;20036;-87
2021/12/01 13:34:07;;;;;;;0.47;0.47;;;;;;;;;;5076237;28;20020;-89
2021/12/01 13:36:43;;;;;;;0.35;0.35;;;;;;;;;;5057539;28;20024;-86
2021/12/01 13:39:35;;;;;;;0.45;0.45;;;;;;;;;;5061785;28;20147;-88
2021/12/01 13:42:10;;;;;;;1.08;0.50;;;;;;;;;;5057456;28;20029;-88
2021/12/01 13:44:41;;;;;;;1.20;0.70;;;;;;;;;;5038714;28;20585;-85
2021/12/01 13:47:16;;;;;;;1.38;0.50;;;;;;;;;;5040702;28;20032;-88
2021/12/01 13:49:48;;;;;;;0.60;0.47;;;;;;;;;;5055791;28;20097;-86
2021/12/01 13:52:43;;;;;;;0.30;0.30;;;;;;;;;;5055272;28;20498;-88
2021/12/01 13:55:18;;;;;;;0.47;0.47;;;;;;;;;;5037208;28;20127;-87
2021/12/01 13:57:48;;;;;;;0.32;0.32;;;;;;;;;;5036758;28;20013;-85
2021/12/01 14:00:16;;;;;;;0.45;0.45;;;;;;;;;;5038684;28;20080;-87
2021/12/01 14:02:42;;;;;;;0.60;0.60;;;;;;;;;;5057988;28;20025;-84
2021/12/01 14:05:09;;;;;;;5.88;0.60;;;;;;;;;;5040071;28;20031;-88
2021/12/01 14:07:47;;;;;;;0.60;0.60;;;;;;;;;;5040509;28;20021;-88
2021/12/01 14:10:21;;;;;;;0.43;0.38;;;;;;;;;;5041084;28;20025;-87
2021/12/01 14:12:51;;;;;;;0.85;0.40;;;;;;;;;;5039898;28;20032;-88
2021/12/01 14:15:17;;;;;;;0.40;0.40;;;;;;;;;;5040224;28;20020;-89
2021/12/01 14:17:43;;;;;;;0.50;0.50;;;;;;;;;;5038044;28;20025;-88
2021/12/01 14:20:13;;;;;;;0.50;0.50;;;;;;;;;;5056575;28;20024;-89
2021/12/01 14:22:42;;;;;;;0.45;0.40;;;;;;;;;;5056333;28;20051;-89
2021/12/01 14:25:12;;;;;;;0.47;0.47;;;;;;;;;;5039893;28;20028;-87
2021/12/01 14:27:38;;;;;;;2.00;0.90;;;;;;;;;;5056414;28;20082;-88
2021/12/01 14:30:08;;;;;;;0.47;0.47;;;;;;;;;;5040441;28;20025;-88
2021/12/01 14:32:34;;;;;;;1.25;0.50;;;;;;;;;;5056654;28;20151;-87
2021/12/01 14:35:06;;;;;;;0.63;0.40;;;;;;;;;;5060444;28;20420;-89
2021/12/01 14:37:33;;;;;;;1.25;0.60;;;;;;;;;;5042947;28;20032;-89
2021/12/01 14:40:08;;;;;;;0.75;0.50;;;;;;;;;;5040972;28;20036;-88
2021/12/01 14:42:39;;;;;;;0.50;0.50;;;;;;;;;;5061132;28;20021;-89
2021/12/01 14:45:07;;;;;;;0.35;0.35;;;;;;;;;;5062760;28;20057;-89
2021/12/01 14:47:33;;;;;;;0.50;0.50;;;;;;;;;;5037607;28;20043;-89
2021/12/01 14:49:59;;;;;;;0.30;0.30;;;;;;;;;;5039753;28;20033;-90
2021/12/01 14:52:29;;;;;;;0.82;0.82;;;;;;;;;;5058512;28;20021;-86
2021/12/01 14:55:03;;;;;;;1.00;0.60;;;;;;;;;;5044023;28;20383;-86
2021/12/01 14:57:35;;;;;;;0.38;0.30;;;;;;;;;;5045333;28;20024;-86
2021/12/01 15:00:07;;;;;;;2.08;0.70;;;;;;;;;;5043839;28;20573;-87
2021/12/01 15:02:33;;;;;;;1.10;0.50;;;;;;;;;;5063468;28;20108;-90
2021/12/01 15:05:05;;;;;;;0.28;0.28;;;;;;;;;;5060548;28;20426;-90
2021/12/01 15:07:36;;;;;;;0.50;0.43;;;;;;;;;;5040174;28;20059;-85
2021/12/01 15:10:16;;;;;;;0.93;0.80;;;;;;;;;;5039178;28;20033;-85
2021/12/01 15:12:47;;;;;;;2.00;0.50;;;;;;;;;;5040018;28;20044;-85
2021/12/01 15:15:34;;;;;;;1.30;0.77;;;;;;;;;;5042173;28;20052;-87
2021/12/01 15:18:07;;;;;;;0.65;0.65;;;;;;;;;;5059298;28;20087;-88
2021/12/01 15:20:33;;;;;;;2.63;0.50;;;;;;;;;;5057852;28;20056;-85
2021/12/01 15:23:07;;;;;;;1.75;0.50;;;;;;;;;;5039458;28;20056;-87
2021/12/01 15:25:35;;;;;;;0.40;0.40;;;;;;;;;;5039266;28;20128;-87
2021/12/01 15:28:09;;;;;;;0.80;0.57;;;;;;;;;;5056726;28;20024;-89
2021/12/01 15:30:38;;;;;;;1.45;0.60;;;;;;;;;;5058048;28;20023;-90
2021/12/01 15:33:09;;;;;;;0.73;0.52;;;;;;;;;;5057843;28;20032;-89
2021/12/01 15:35:35;;;;;;;0.30;0.30;;;;;;;;;;5039769;28;20498;-89
2021/12/01 15:38:01;;;;;;;0.50;0.50;;;;;;;;;;5039549;28;20029;-88
2021/12/01 15:40:27;;;;;;;0.50;0.50;;;;;;;;;;5058142;28;20024;-88
2021/12/01 15:42:52;;;;;;;0.60;0.60;;;;;;;;;;5059405;28;20048;-88
2021/12/01 15:45:19;;;;;;;1.20;0.50;;;;;;;;;;5057888;28;20391;-88
2021/12/01 15:47:46;;;;;;;2.88;0.60;;;;;;;;;;5040623;28;20017;-88
2021/12/01 15:50:12;;;;;;;0.70;0.68;;;;;;;;;;5059007;28;20467;-88
2021/12/01 15:52:38;;;;;;;1.95;0.88;;;;;;;;;;5057859;28;20437;-88
2021/12/01 15:55:07;;;;;;;0.50;0.50;;;;;;;;;;5034138;28;20112;-91
2021/12/01 15:57:33;;;;;;;0.47;0.47;;;;;;;;;;5038435;28;20025;-88
2021/12/01 15:59:58;;;;;;;0.88;0.60;;;;;;;;;;5038864;28;20039;-88
2021/12/01 16:02:24;;;;;;;1.80;0.60;;;;;;;;;;5058525;28;20475;-88
2021/12/01 16:04:50;;;;;;;0.60;0.60;;;;;;;;;;5058673;28;20032;-87
2021/12/01 16:07:15;;;;;;;0.75;0.60;;;;;;;;;;5059340;28;20009;-87
2021/12/01 16:09:41;;;;;;;1.20;0.70;;;;;;;;;;5040293;28;20514;-88
2021/12/01 16:12:07;;;;;;;0.43;0.43;;;;;;;;;;5040384;28;20025;-87
2021/12/01 16:14:32;;;;;;;0.95;0.80;;;;;;;;;;5057060;28;20085;-87
2021/12/01 16:16:59;;;;;;;0.50;0.50;;;;;;;;;;5040106;28;20085;-88
2021/12/01 16:19:25;;;;;;;0.60;0.60;;;;;;;;;;5058337;28;20070;-88
2021/12/01 16:21:51;;;;;;;0.50;0.50;;;;;;;;;;5040362;28;20017;-87
2021/12/01 16:24:17;;;;;;;0.50;0.50;;;;;;;;;;5057360;28;20029;-88
2021/12/01 16:26:45;;;;;;;0.40;0.40;;;;;;;;;;5038525;28;21299;-88
2021/12/01 16:29:11;;;;;;;0.77;0.77;;;;;;;;;;5038657;28;20020;-88
2021/12/01 16:31:36;;;;;;;1.23;0.63;;;;;;;;;;5058438;28;20025;-88
2021/12/01 16:34:02;;;;;;;0.35;0.35;;;;;;;;;;5039641;28;20071;-88
2021/12/01 16:36:28;;;;;;;1.45;0.63;;;;;;;;;;5056879;28;20440;-87
2021/12/01 16:38:56;;;;;;;2.63;0.60;;;;;;;;;;5037474;28;20024;-84
2021/12/01 16:41:22;;;;;;;0.38;0.38;;;;;;;;;;5059085;28;20024;-86
2021/12/01 16:43:48;;;;;;;0.82;0.70;;;;;;;;;;5055213;28;20032;-88
2021/12/01 16:46:14;;;;;;;0.50;0.50;;;;;;;;;;5038356;28;20471;-87
2021/12/01 16:48:41;;;;;;;1.50;0.50;;;;;;;;;;5038425;28;20017;-85
2021/12/01 16:51:07;;;;;;;1.55;0.60;;;;;;;;;;5057924;28;20467;-83